sensor_id;sensor_type;location;lat;lon;timestamp;pressure;altitude;pressure_sealevel;temperature;humidity
63556;BME280;49700;48.072;7.800;2022-10-17T00:01:22;99937.06;;;14.51;nan
63556;BME280;49700;48.072;7.800;2022-10-17T00:03:47;99933.44;;;14.52;nan
63556;BME280;49700;48.072;7.800;2022-10-17T00:06:14;99928.94;;;14.54;nan
63556;BME280;49700;48.072;7.800;2022-10-17T00:08:40;99946.59;;;14.53;nan
63556;BME280;49700;48.072;7.800;2022-10-17T00:11:13;99939.69;;;14.51;nan
63556;BME280;49700;48.072;7.800;2022-10-17T00:13:39;99938.47;;;14.44;nan
63556;BME280;49700;48.072;7.800;2022-10-17T00:16:05;99942.41;;;14.38;nan
63556;BME280;49700;48.072;7.800;2022-10-17T00:18:30;99938.19;;;14.35;nan
63556;BME280;49700;48.072;7.800;2022-10-17T00:20:56;99932.91;;;14.35;nan
63556;BME280;49700;48.072;7.800;2022-10-17T00:23:21;99942.63;;;14.35;nan
63556;BME280;49700;48.072;7.800;2022-10-17T00:25:56;99941.91;;;14.33;nan
63556;BME280;49700;48.072;7.800;2022-10-17T00:28:22;99940.97;;;14.34;nan
63556;BME280;49700;48.072;7.800;2022-10-17T00:30:55;99947.09;;;14.34;nan
63556;BME280;49700;48.072;7.800;2022-10-17T00:33:20;99947.09;;;14.34;nan
63556;BME280;49700;48.072;7.800;2022-10-17T00:35:46;99940.09;;;14.33;nan
63556;BME280;49700;48.072;7.800;2022-10-17T00:38:11;99949.00;;;14.32;nan
63556;BME280;49700;48.072;7.800;2022-10-17T00:40:37;99940.22;;;14.32;nan
63556;BME280;49700;48.072;7.800;2022-10-17T00:43:02;99954.38;;;14.31;nan
63556;BME280;49700;48.072;7.800;2022-10-17T00:45:29;99951.97;;;14.28;nan
63556;BME280;49700;48.072;7.800;2022-10-17T00:48:06;99955.66;;;14.25;nan
63556;BME280;49700;48.072;7.800;2022-10-17T00:50:34;99958.53;;;14.22;nan
63556;BME280;49700;48.072;7.800;2022-10-17T00:53:03;99957.81;;;14.20;nan
63556;BME280;49700;48.072;7.800;2022-10-17T00:55:32;99958.03;;;14.17;nan
63556;BME280;49700;48.072;7.800;2022-10-17T00:58:01;99954.88;;;14.12;nan
63556;BME280;49700;48.072;7.800;2022-10-17T01:00:27;99962.94;;;14.10;nan
63556;BME280;49700;48.072;7.800;2022-10-17T01:02:52;99966.19;;;14.14;nan
63556;BME280;49700;48.072;7.800;2022-10-17T01:05:19;99962.81;;;14.12;nan
63556;BME280;49700;48.072;7.800;2022-10-17T01:07:46;99969.38;;;14.06;nan
63556;BME280;49700;48.072;7.800;2022-10-17T01:10:12;99970.44;;;14.04;nan
63556;BME280;49700;48.072;7.800;2022-10-17T01:15:26;99978.06;;;13.95;nan
63556;BME280;49700;48.072;7.800;2022-10-17T01:26:22;99978.97;;;13.83;nan
63556;BME280;49700;48.072;7.800;2022-10-17T01:31:46;99973.16;;;13.78;nan
63556;BME280;49700;48.072;7.800;2022-10-17T01:36:52;99972.66;;;13.73;nan
63556;BME280;49700;48.072;7.800;2022-10-17T01:42:05;99970.97;;;13.72;nan
63556;BME280;49700;48.072;7.800;2022-10-17T01:44:37;99962.41;;;13.68;nan
63556;BME280;49700;48.072;7.800;2022-10-17T01:47:09;99965.88;;;13.69;nan
63556;BME280;49700;48.072;7.800;2022-10-17T01:49:39;99958.94;;;13.68;nan
63556;BME280;49700;48.072;7.800;2022-10-17T01:52:14;99966.09;;;13.66;nan
63556;BME280;49700;48.072;7.800;2022-10-17T01:54:54;99961.78;;;13.65;nan
63556;BME280;49700;48.072;7.800;2022-10-17T01:59:50;99948.06;;;13.60;nan
63556;BME280;49700;48.072;7.800;2022-10-17T02:02:20;99960.53;;;13.58;nan
63556;BME280;49700;48.072;7.800;2022-10-17T02:04:48;99957.66;;;13.61;nan
63556;BME280;49700;48.072;7.800;2022-10-17T02:07:15;99956.22;;;13.57;nan
63556;BME280;49700;48.072;7.800;2022-10-17T02:09:41;99954.63;;;13.54;nan
63556;BME280;49700;48.072;7.800;2022-10-17T02:15:02;99957.28;;;13.54;nan
63556;BME280;49700;48.072;7.800;2022-10-17T02:17:44;99952.59;;;13.58;nan
63556;BME280;49700;48.072;7.800;2022-10-17T02:20:20;99952.59;;;13.58;nan
63556;BME280;49700;48.072;7.800;2022-10-17T02:25:43;99945.53;;;13.58;nan
63556;BME280;49700;48.072;7.800;2022-10-17T02:28:32;99951.16;;;13.54;nan
63556;BME280;49700;48.072;7.800;2022-10-17T02:31:06;99940.69;;;13.52;nan
63556;BME280;49700;48.072;7.800;2022-10-17T02:33:40;99944.59;;;13.46;nan
63556;BME280;49700;48.072;7.800;2022-10-17T02:36:14;99947.38;;;13.45;nan
63556;BME280;49700;48.072;7.800;2022-10-17T02:38:43;99941.44;;;13.41;nan
63556;BME280;49700;48.072;7.800;2022-10-17T02:41:14;99944.44;;;13.37;nan
63556;BME280;49700;48.072;7.800;2022-10-17T02:43:40;99948.00;;;13.36;nan
63556;BME280;49700;48.072;7.800;2022-10-17T02:46:11;99952.66;;;13.32;nan
63556;BME280;49700;48.072;7.800;2022-10-17T02:48:54;99950.22;;;13.29;nan
63556;BME280;49700;48.072;7.800;2022-10-17T02:51:45;99951.34;;;13.25;nan
63556;BME280;49700;48.072;7.800;2022-10-17T02:54:22;99952.63;;;13.19;nan
63556;BME280;49700;48.072;7.800;2022-10-17T02:56:55;99951.78;;;13.19;nan
63556;BME280;49700;48.072;7.800;2022-10-17T02:59:24;99952.84;;;13.16;nan
63556;BME280;49700;48.072;7.800;2022-10-17T03:01:50;99959.91;;;13.16;nan
63556;BME280;49700;48.072;7.800;2022-10-17T03:04:17;99954.50;;;13.17;nan
63556;BME280;49700;48.072;7.800;2022-10-17T03:06:43;99963.16;;;13.19;nan
63556;BME280;49700;48.072;7.800;2022-10-17T03:09:10;99970.03;;;13.22;nan
63556;BME280;49700;48.072;7.800;2022-10-17T03:11:36;99967.19;;;13.25;nan
63556;BME280;49700;48.072;7.800;2022-10-17T03:14:01;99968.91;;;13.26;nan
63556;BME280;49700;48.072;7.800;2022-10-17T03:16:27;99964.53;;;13.25;nan
63556;BME280;49700;48.072;7.800;2022-10-17T03:18:53;99976.25;;;13.21;nan
63556;BME280;49700;48.072;7.800;2022-10-17T03:21:18;99973.84;;;13.18;nan
63556;BME280;49700;48.072;7.800;2022-10-17T03:23:43;99986.50;;;13.13;nan
63556;BME280;49700;48.072;7.800;2022-10-17T03:26:09;99983.09;;;13.11;nan
63556;BME280;49700;48.072;7.800;2022-10-17T03:28:35;99977.22;;;13.07;nan
63556;BME280;49700;48.072;7.800;2022-10-17T03:31:08;99983.31;;;13.07;nan
63556;BME280;49700;48.072;7.800;2022-10-17T03:33:36;99985.22;;;13.05;nan
63556;BME280;49700;48.072;7.800;2022-10-17T03:36:09;99982.56;;;13.05;nan
63556;BME280;49700;48.072;7.800;2022-10-17T03:38:35;99984.25;;;13.06;nan
63556;BME280;49700;48.072;7.800;2022-10-17T03:41:01;99988.81;;;13.04;nan
63556;BME280;49700;48.072;7.800;2022-10-17T03:43:27;99988.81;;;13.04;nan
63556;BME280;49700;48.072;7.800;2022-10-17T03:45:52;99989.94;;;13.00;nan
63556;BME280;49700;48.072;7.800;2022-10-17T03:48:18;99994.38;;;13.00;nan
63556;BME280;49700;48.072;7.800;2022-10-17T03:50:43;99996.19;;;12.99;nan
63556;BME280;49700;48.072;7.800;2022-10-17T03:53:09;100000.63;;;12.99;nan
63556;BME280;49700;48.072;7.800;2022-10-17T03:55:35;99996.19;;;12.99;nan
63556;BME280;49700;48.072;7.800;2022-10-17T03:58:00;100003.13;;;13.00;nan
63556;BME280;49700;48.072;7.800;2022-10-17T04:00:26;99999.75;;;12.98;nan
63556;BME280;49700;48.072;7.800;2022-10-17T04:02:56;99993.63;;;12.98;nan
63556;BME280;49700;48.072;7.800;2022-10-17T04:05:23;99991.84;;;12.98;nan
63556;BME280;49700;48.072;7.800;2022-10-17T04:07:48;99993.63;;;12.98;nan
63556;BME280;49700;48.072;7.800;2022-10-17T04:10:16;100003.34;;;12.97;nan
63556;BME280;49700;48.072;7.800;2022-10-17T04:12:41;100003.25;;;12.99;nan
63556;BME280;49700;48.072;7.800;2022-10-17T04:15:08;100016.44;;;12.99;nan
63556;BME280;49700;48.072;7.800;2022-10-17T04:17:34;100009.47;;;12.98;nan
63556;BME280;49700;48.072;7.800;2022-10-17T04:20:00;100019.16;;;12.97;nan
63556;BME280;49700;48.072;7.800;2022-10-17T04:22:26;100005.97;;;12.97;nan
63556;BME280;49700;48.072;7.800;2022-10-17T04:24:51;100013.34;;;12.92;nan
63556;BME280;49700;48.072;7.800;2022-10-17T04:27:26;100016.28;;;12.88;nan
63556;BME280;49700;48.072;7.800;2022-10-17T04:29:52;100015.56;;;12.86;nan
63556;BME280;49700;48.072;7.800;2022-10-17T04:32:24;100023.66;;;12.82;nan
63556;BME280;49700;48.072;7.800;2022-10-17T04:35:00;100019.47;;;12.80;nan
63556;BME280;49700;48.072;7.800;2022-10-17T04:37:28;100021.22;;;12.79;nan
63556;BME280;49700;48.072;7.800;2022-10-17T04:39:53;100020.50;;;12.77;nan
63556;BME280;49700;48.072;7.800;2022-10-17T04:42:19;100030.38;;;12.74;nan
63556;BME280;49700;48.072;7.800;2022-10-17T04:44:45;100025.22;;;12.72;nan
63556;BME280;49700;48.072;7.800;2022-10-17T04:47:12;100028.06;;;12.69;nan
63556;BME280;49700;48.072;7.800;2022-10-17T04:49:37;100028.44;;;12.63;nan
63556;BME280;49700;48.072;7.800;2022-10-17T04:52:08;100031.22;;;12.61;nan
63556;BME280;49700;48.072;7.800;2022-10-17T04:54:42;100027.72;;;12.61;nan
63556;BME280;49700;48.072;7.800;2022-10-17T04:57:09;100025.94;;;12.61;nan
63556;BME280;49700;48.072;7.800;2022-10-17T04:59:38;100027.63;;;12.62;nan
63556;BME280;49700;48.072;7.800;2022-10-17T05:02:15;100031.09;;;12.63;nan
63556;BME280;49700;48.072;7.800;2022-10-17T05:04:41;100036.28;;;12.65;nan
63556;BME280;49700;48.072;7.800;2022-10-17T05:07:07;100037.13;;;12.65;nan
63556;BME280;49700;48.072;7.800;2022-10-17T05:10:06;100038.91;;;12.65;nan
63556;BME280;49700;48.072;7.800;2022-10-17T05:12:32;100050.38;;;12.63;nan
63556;BME280;49700;48.072;7.800;2022-10-17T05:14:57;100051.53;;;12.59;nan
63556;BME280;49700;48.072;7.800;2022-10-17T05:17:24;100055.41;;;12.54;nan
63556;BME280;49700;48.072;7.800;2022-10-17T05:19:50;100051.19;;;12.51;nan
63556;BME280;49700;48.072;7.800;2022-10-17T05:22:16;100054.88;;;12.49;nan
63556;BME280;49700;48.072;7.800;2022-10-17T05:24:42;100051.41;;;12.48;nan
63556;BME280;49700;48.072;7.800;2022-10-17T05:27:08;100051.59;;;12.45;nan
63556;BME280;49700;48.072;7.800;2022-10-17T05:29:34;100061.25;;;12.45;nan
63556;BME280;49700;48.072;7.800;2022-10-17T05:32:09;100055.16;;;12.44;nan
63556;BME280;49700;48.072;7.800;2022-10-17T05:34:34;100054.41;;;12.42;nan
63556;BME280;49700;48.072;7.800;2022-10-17T05:37:00;100052.72;;;12.41;nan
63556;BME280;49700;48.072;7.800;2022-10-17T05:39:25;100067.78;;;12.39;nan
63556;BME280;49700;48.072;7.800;2022-10-17T05:41:51;100073.03;;;12.39;nan
63556;BME280;49700;48.072;7.800;2022-10-17T05:44:17;100073.91;;;12.39;nan
63556;BME280;49700;48.072;7.800;2022-10-17T05:46:49;100078.31;;;12.39;nan
63556;BME280;49700;48.072;7.800;2022-10-17T05:49:15;100084.53;;;12.38;nan
63556;BME280;49700;48.072;7.800;2022-10-17T05:51:41;100078.31;;;12.39;nan
63556;BME280;49700;48.072;7.800;2022-10-17T05:54:07;100070.59;;;12.36;nan
63556;BME280;49700;48.072;7.800;2022-10-17T05:56:34;100078.72;;;12.33;nan
63556;BME280;49700;48.072;7.800;2022-10-17T05:59:00;100084.81;;;12.33;nan
63556;BME280;49700;48.072;7.800;2022-10-17T06:01:40;100092.63;;;12.35;nan
63556;BME280;49700;48.072;7.800;2022-10-17T06:04:06;100079.66;;;12.32;nan
63556;BME280;49700;48.072;7.800;2022-10-17T06:06:31;100089.25;;;12.33;nan
63556;BME280;49700;48.072;7.800;2022-10-17T06:08:57;100087.44;;;12.33;nan
63556;BME280;49700;48.072;7.800;2022-10-17T06:11:27;100089.25;;;12.33;nan
63556;BME280;49700;48.072;7.800;2022-10-17T06:13:53;100104.09;;;12.34;nan
63556;BME280;49700;48.072;7.800;2022-10-17T06:16:22;100123.28;;;12.36;nan
63556;BME280;49700;48.072;7.800;2022-10-17T06:18:48;100114.28;;;12.40;nan
63556;BME280;49700;48.072;7.800;2022-10-17T06:21:16;100115.88;;;12.43;nan
63556;BME280;49700;48.072;7.800;2022-10-17T06:23:45;100116.50;;;12.46;nan
63556;BME280;49700;48.072;7.800;2022-10-17T06:26:15;100123.19;;;12.52;nan
63556;BME280;49700;48.072;7.800;2022-10-17T06:28:41;100127.22;;;12.57;nan
63556;BME280;49700;48.072;7.800;2022-10-17T06:31:12;100136.31;;;12.66;nan
63556;BME280;49700;48.072;7.800;2022-10-17T06:33:38;100126.44;;;12.70;nan
63556;BME280;49700;48.072;7.800;2022-10-17T06:36:05;100136.66;;;12.74;nan
63556;BME280;49700;48.072;7.800;2022-10-17T06:38:32;100146.72;;;12.82;nan
63556;BME280;49700;48.072;7.800;2022-10-17T06:41:08;100142.84;;;12.88;nan
63556;BME280;49700;48.072;7.800;2022-10-17T06:43:38;100136.22;;;12.95;nan
63556;BME280;49700;48.072;7.800;2022-10-17T06:46:39;100154.28;;;13.01;nan
63556;BME280;49700;48.072;7.800;2022-10-17T06:49:08;100142.50;;;13.06;nan
63556;BME280;49700;48.072;7.800;2022-10-17T06:51:41;100139.34;;;13.14;nan
63556;BME280;49700;48.072;7.800;2022-10-17T06:54:08;100150.25;;;13.22;nan
63556;BME280;49700;48.072;7.800;2022-10-17T06:56:45;100150.31;;;13.35;nan
63556;BME280;49700;48.072;7.800;2022-10-17T06:59:17;100148.75;;;13.45;nan
63556;BME280;49700;48.072;7.800;2022-10-17T07:01:50;100153.31;;;13.56;nan
63556;BME280;49700;48.072;7.800;2022-10-17T07:04:15;100153.44;;;13.67;nan
63556;BME280;49700;48.072;7.800;2022-10-17T07:06:41;100144.03;;;13.76;nan
63556;BME280;49700;48.072;7.800;2022-10-17T07:09:14;100151.53;;;13.82;nan
63556;BME280;49700;48.072;7.800;2022-10-17T07:11:39;100159.78;;;13.90;nan
63556;BME280;49700;48.072;7.800;2022-10-17T07:14:04;100154.81;;;13.99;nan
63556;BME280;49700;48.072;7.800;2022-10-17T07:16:30;100150.94;;;14.04;nan
63556;BME280;49700;48.072;7.800;2022-10-17T07:19:05;100170.56;;;14.13;nan
63556;BME280;49700;48.072;7.800;2022-10-17T07:21:34;100155.78;;;14.23;nan
63556;BME280;49700;48.072;7.800;2022-10-17T07:24:02;100161.13;;;14.34;nan
63556;BME280;49700;48.072;7.800;2022-10-17T07:26:27;100164.63;;;14.48;nan
63556;BME280;49700;48.072;7.800;2022-10-17T07:28:54;100161.84;;;14.62;nan
63556;BME280;49700;48.072;7.800;2022-10-17T07:31:27;100168.69;;;14.77;nan
63556;BME280;49700;48.072;7.800;2022-10-17T07:33:52;100168.44;;;14.93;nan
63556;BME280;49700;48.072;7.800;2022-10-17T07:36:19;100170.78;;;15.09;nan
63556;BME280;49700;48.072;7.800;2022-10-17T07:38:44;100172.28;;;15.24;nan
63556;BME280;49700;48.072;7.800;2022-10-17T07:41:11;100166.81;;;15.39;nan
63556;BME280;49700;48.072;7.800;2022-10-17T07:43:37;100174.59;;;15.53;nan
63556;BME280;49700;48.072;7.800;2022-10-17T07:46:04;100175.22;;;15.68;nan
63556;BME280;49700;48.072;7.800;2022-10-17T07:48:31;100167.06;;;15.82;nan
63556;BME280;49700;48.072;7.800;2022-10-17T07:51:00;100180.25;;;15.95;nan
63556;BME280;49700;48.072;7.800;2022-10-17T07:53:26;100168.69;;;16.07;nan
63556;BME280;49700;48.072;7.800;2022-10-17T07:55:51;100174.00;;;16.19;nan
63556;BME280;49700;48.072;7.800;2022-10-17T07:58:17;100177.25;;;16.33;nan
63556;BME280;49700;48.072;7.800;2022-10-17T08:00:42;100177.13;;;16.46;nan
63556;BME280;49700;48.072;7.800;2022-10-17T08:03:09;100182.56;;;16.56;nan
63556;BME280;49700;48.072;7.800;2022-10-17T08:05:35;100179.31;;;16.64;nan
63556;BME280;49700;48.072;7.800;2022-10-17T08:08:00;100184.59;;;16.75;nan
63556;BME280;49700;48.072;7.800;2022-10-17T08:10:26;100187.69;;;17.02;nan
63556;BME280;49700;48.072;7.800;2022-10-17T08:12:56;100184.97;;;17.78;nan
63556;BME280;49700;48.072;7.800;2022-10-17T08:15:23;100185.50;;;18.85;nan
63556;BME280;49700;48.072;7.800;2022-10-17T08:17:50;100183.72;;;19.83;nan
63556;BME280;49700;48.072;7.800;2022-10-17T08:20:15;100184.22;;;20.53;nan
63556;BME280;49700;48.072;7.800;2022-10-17T08:22:41;100184.28;;;21.16;nan
63556;BME280;49700;48.072;7.800;2022-10-17T08:25:07;100179.56;;;21.64;nan
63556;BME280;49700;48.072;7.800;2022-10-17T08:27:33;100178.97;;;22.22;nan
63556;BME280;49700;48.072;7.800;2022-10-17T08:29:58;100185.75;;;22.85;nan
63556;BME280;49700;48.072;7.800;2022-10-17T08:32:26;100189.06;;;23.30;nan
63556;BME280;49700;48.072;7.800;2022-10-17T08:34:52;100180.03;;;23.88;nan
63556;BME280;49700;48.072;7.800;2022-10-17T08:37:20;100184.63;;;24.35;nan
63556;BME280;49700;48.072;7.800;2022-10-17T08:39:45;100185.69;;;24.65;nan
63556;BME280;49700;48.072;7.800;2022-10-17T08:42:30;100184.00;;;24.72;nan
63556;BME280;49700;48.072;7.800;2022-10-17T08:47:51;100180.88;;;24.92;nan
63556;BME280;49700;48.072;7.800;2022-10-17T08:50:35;100183.38;;;24.93;nan
63556;BME280;49700;48.072;7.800;2022-10-17T08:55:52;100176.06;;;25.56;nan
63556;BME280;49700;48.072;7.800;2022-10-17T08:58:22;100172.31;;;26.03;nan
63556;BME280;49700;48.072;7.800;2022-10-17T09:06:23;100172.16;;;26.86;nan
63556;BME280;49700;48.072;7.800;2022-10-17T09:12:06;100174.13;;;27.13;nan
63556;BME280;49700;48.072;7.800;2022-10-17T09:17:37;100174.97;;;26.92;nan
63556;BME280;49700;48.072;7.800;2022-10-17T09:20:19;100183.00;;;26.56;nan
63556;BME280;49700;48.072;7.800;2022-10-17T09:22:54;100177.22;;;26.30;nan
63556;BME280;49700;48.072;7.800;2022-10-17T09:25:21;100185.00;;;25.95;nan
63556;BME280;49700;48.072;7.800;2022-10-17T09:27:53;100187.28;;;25.83;nan
63556;BME280;49700;48.072;7.800;2022-10-17T09:30:34;100192.00;;;25.81;nan
63556;BME280;49700;48.072;7.800;2022-10-17T09:33:09;100193.34;;;25.62;nan
63556;BME280;49700;48.072;7.800;2022-10-17T09:35:36;100202.28;;;25.39;nan
63556;BME280;49700;48.072;7.800;2022-10-17T09:38:02;100197.41;;;25.12;nan
63556;BME280;49700;48.072;7.800;2022-10-17T09:40:34;100210.00;;;24.80;nan
63556;BME280;49700;48.072;7.800;2022-10-17T09:43:01;100207.44;;;24.39;nan
63556;BME280;49700;48.072;7.800;2022-10-17T09:45:31;100213.22;;;24.12;nan
63556;BME280;49700;48.072;7.800;2022-10-17T09:48:07;100211.19;;;23.64;nan
63556;BME280;49700;48.072;7.800;2022-10-17T09:50:35;100217.22;;;23.34;nan
63556;BME280;49700;48.072;7.800;2022-10-17T09:53:08;100219.22;;;23.24;nan
63556;BME280;49700;48.072;7.800;2022-10-17T09:55:46;100214.19;;;23.21;nan
63556;BME280;49700;48.072;7.800;2022-10-17T09:58:13;100217.34;;;23.24;nan
63556;BME280;49700;48.072;7.800;2022-10-17T10:00:45;100207.47;;;23.25;nan
63556;BME280;49700;48.072;7.800;2022-10-17T10:05:37;100210.34;;;23.23;nan
63556;BME280;49700;48.072;7.800;2022-10-17T10:08:22;100212.84;;;23.25;nan
63556;BME280;49700;48.072;7.800;2022-10-17T10:10:57;100213.84;;;23.24;nan
63556;BME280;49700;48.072;7.800;2022-10-17T10:13:25;100216.19;;;23.27;nan
63556;BME280;49700;48.072;7.800;2022-10-17T10:15:51;100219.22;;;23.32;nan
63556;BME280;49700;48.072;7.800;2022-10-17T10:18:28;100225.44;;;23.40;nan
63556;BME280;49700;48.072;7.800;2022-10-17T10:21:11;100219.09;;;23.58;nan
63556;BME280;49700;48.072;7.800;2022-10-17T10:23:40;100223.94;;;23.62;nan
63556;BME280;49700;48.072;7.800;2022-10-17T10:26:26;100219.59;;;23.70;nan
63556;BME280;49700;48.072;7.800;2022-10-17T10:29:03;100230.19;;;23.79;nan
63556;BME280;49700;48.072;7.800;2022-10-17T10:31:34;100233.50;;;23.90;nan
63556;BME280;49700;48.072;7.800;2022-10-17T10:34:11;100239.56;;;24.00;nan
63556;BME280;49700;48.072;7.800;2022-10-17T10:37:05;100236.19;;;24.06;nan
63556;BME280;49700;48.072;7.800;2022-10-17T10:39:46;100233.31;;;24.16;nan
63556;BME280;49700;48.072;7.800;2022-10-17T10:42:33;100229.44;;;24.26;nan
63556;BME280;49700;48.072;7.800;2022-10-17T10:45:49;100234.28;;;24.39;nan
63556;BME280;49700;48.072;7.800;2022-10-17T10:50:58;100227.50;;;24.68;nan
63556;BME280;49700;48.072;7.800;2022-10-17T10:53:40;100227.31;;;24.78;nan
63556;BME280;49700;48.072;7.800;2022-10-17T10:56:28;100228.44;;;24.83;nan
63556;BME280;49700;48.072;7.800;2022-10-17T11:01:36;100233.31;;;24.88;nan
63556;BME280;49700;48.072;7.800;2022-10-17T11:04:29;100231.94;;;24.92;nan
63556;BME280;49700;48.072;7.800;2022-10-17T11:07:04;100234.25;;;24.95;nan
63556;BME280;49700;48.072;7.800;2022-10-17T11:10:02;100230.69;;;25.03;nan
63556;BME280;49700;48.072;7.800;2022-10-17T11:12:39;100232.19;;;25.05;nan
63556;BME280;49700;48.072;7.800;2022-10-17T11:18:02;100244.59;;;25.14;nan
63556;BME280;49700;48.072;7.800;2022-10-17T11:23:17;100235.19;;;25.10;nan
63556;BME280;49700;48.072;7.800;2022-10-17T11:25:48;100237.72;;;25.12;nan
63556;BME280;49700;48.072;7.800;2022-10-17T11:28:17;100245.78;;;25.12;nan
63556;BME280;49700;48.072;7.800;2022-10-17T11:30:48;100241.75;;;25.16;nan
63556;BME280;49700;48.072;7.800;2022-10-17T11:33:23;100240.69;;;25.25;nan
63556;BME280;49700;48.072;7.800;2022-10-17T11:35:51;100240.66;;;25.33;nan
63556;BME280;49700;48.072;7.800;2022-10-17T11:38:39;100237.91;;;25.42;nan
63556;BME280;49700;48.072;7.800;2022-10-17T11:41:12;100232.31;;;25.43;nan
63556;BME280;49700;48.072;7.800;2022-10-17T11:43:51;100232.81;;;25.47;nan
63556;BME280;49700;48.072;7.800;2022-10-17T11:46:22;100227.25;;;25.48;nan
63556;BME280;49700;48.072;7.800;2022-10-17T11:48:59;100231.63;;;25.49;nan
63556;BME280;49700;48.072;7.800;2022-10-17T11:51:28;100230.78;;;25.49;nan
63556;BME280;49700;48.072;7.800;2022-10-17T11:54:01;100227.56;;;25.53;nan
63556;BME280;49700;48.072;7.800;2022-10-17T11:56:50;100224.34;;;25.58;nan
63556;BME280;49700;48.072;7.800;2022-10-17T12:02:46;100220.75;;;25.66;nan
63556;BME280;49700;48.072;7.800;2022-10-17T12:05:23;100216.50;;;25.71;nan
63556;BME280;49700;48.072;7.800;2022-10-17T12:07:57;100213.22;;;25.76;nan
63556;BME280;49700;48.072;7.800;2022-10-17T12:10:53;100210.00;;;25.80;nan
63556;BME280;49700;48.072;7.800;2022-10-17T12:18:43;100201.88;;;25.89;nan
63556;BME280;49700;48.072;7.800;2022-10-17T12:21:09;100203.00;;;25.94;nan
63556;BME280;49700;48.072;7.800;2022-10-17T12:23:35;100201.16;;;25.95;nan
63556;BME280;49700;48.072;7.800;2022-10-17T12:26:08;100200.16;;;25.96;nan
63556;BME280;49700;48.072;7.800;2022-10-17T12:31:28;100200.53;;;26.08;nan
63556;BME280;49700;48.072;7.800;2022-10-17T12:49:43;100197.00;;;26.22;nan
63556;BME280;49700;48.072;7.800;2022-10-17T13:00:13;100182.41;;;26.16;nan
63556;BME280;49700;48.072;7.800;2022-10-17T13:02:40;100182.72;;;26.21;nan
63556;BME280;49700;48.072;7.800;2022-10-17T13:05:12;100186.72;;;26.25;nan
63556;BME280;49700;48.072;7.800;2022-10-17T13:07:40;100182.81;;;26.28;nan
63556;BME280;49700;48.072;7.800;2022-10-17T13:10:18;100185.31;;;26.30;nan
63556;BME280;49700;48.072;7.800;2022-10-17T13:12:44;100182.63;;;26.30;nan
63556;BME280;49700;48.072;7.800;2022-10-17T13:15:11;100172.88;;;26.29;nan
63556;BME280;49700;48.072;7.800;2022-10-17T13:17:40;100174.75;;;26.28;nan
63556;BME280;49700;48.072;7.800;2022-10-17T13:20:18;100180.50;;;26.25;nan
63556;BME280;49700;48.072;7.800;2022-10-17T13:22:44;100180.66;;;26.23;nan
63556;BME280;49700;48.072;7.800;2022-10-17T13:25:16;100177.31;;;26.21;nan
63556;BME280;49700;48.072;7.800;2022-10-17T13:27:42;100176.13;;;26.24;nan
63556;BME280;49700;48.072;7.800;2022-10-17T13:30:31;100181.34;;;26.25;nan
63556;BME280;49700;48.072;7.800;2022-10-17T13:32:58;100179.63;;;26.24;nan
63556;BME280;49700;48.072;7.800;2022-10-17T13:35:35;100172.59;;;26.23;nan
63556;BME280;49700;48.072;7.800;2022-10-17T13:38:04;100171.75;;;26.23;nan
63556;BME280;49700;48.072;7.800;2022-10-17T13:40:39;100172.97;;;26.20;nan
63556;BME280;49700;48.072;7.800;2022-10-17T13:43:13;100169.63;;;26.18;nan
63556;BME280;49700;48.072;7.800;2022-10-17T13:45:45;100180.38;;;26.18;nan
63556;BME280;49700;48.072;7.800;2022-10-17T13:48:19;100176.88;;;26.18;nan
63556;BME280;49700;48.072;7.800;2022-10-17T13:50:48;100179.28;;;26.13;nan
63556;BME280;49700;48.072;7.800;2022-10-17T13:53:33;100178.81;;;26.09;nan
63556;BME280;49700;48.072;7.800;2022-10-17T13:56:17;100183.53;;;26.07;nan
63556;BME280;49700;48.072;7.800;2022-10-17T13:58:48;100172.13;;;26.05;nan
63556;BME280;49700;48.072;7.800;2022-10-17T14:01:14;100182.06;;;26.04;nan
63556;BME280;49700;48.072;7.800;2022-10-17T14:03:41;100176.00;;;26.02;nan
63556;BME280;49700;48.072;7.800;2022-10-17T14:08:38;100181.09;;;25.97;nan
63556;BME280;49700;48.072;7.800;2022-10-17T14:13:53;100186.69;;;25.96;nan
63556;BME280;49700;48.072;7.800;2022-10-17T14:16:20;100184.16;;;25.94;nan
63556;BME280;49700;48.072;7.800;2022-10-17T14:18:47;100177.13;;;25.93;nan
63556;BME280;49700;48.072;7.800;2022-10-17T14:21:22;100180.66;;;25.94;nan
63556;BME280;49700;48.072;7.800;2022-10-17T14:23:49;100176.28;;;25.93;nan
63556;BME280;49700;48.072;7.800;2022-10-17T14:26:20;100176.09;;;25.94;nan
63556;BME280;49700;48.072;7.800;2022-10-17T14:28:50;100178.63;;;25.96;nan
63556;BME280;49700;48.072;7.800;2022-10-17T14:31:32;100179.00;;;25.93;nan
63556;BME280;49700;48.072;7.800;2022-10-17T14:33:59;100185.38;;;25.92;nan
63556;BME280;49700;48.072;7.800;2022-10-17T14:36:30;100185.06;;;25.87;nan
63556;BME280;49700;48.072;7.800;2022-10-17T14:38:57;100193.53;;;25.83;nan
63556;BME280;49700;48.072;7.800;2022-10-17T14:41:28;100196.56;;;25.80;nan
63556;BME280;49700;48.072;7.800;2022-10-17T14:44:05;100198.59;;;25.78;nan
63556;BME280;49700;48.072;7.800;2022-10-17T14:46:34;100190.03;;;25.75;nan
63556;BME280;49700;48.072;7.800;2022-10-17T14:49:15;100191.63;;;25.69;nan
63556;BME280;49700;48.072;7.800;2022-10-17T14:54:42;100195.75;;;25.57;nan
63556;BME280;49700;48.072;7.800;2022-10-17T14:59:58;100192.66;;;25.45;nan
63556;BME280;49700;48.072;7.800;2022-10-17T15:02:25;100189.84;;;25.38;nan
63556;BME280;49700;48.072;7.800;2022-10-17T15:04:51;100191.38;;;25.33;nan
63556;BME280;49700;48.072;7.800;2022-10-17T15:07:17;100193.59;;;25.29;nan
63556;BME280;49700;48.072;7.800;2022-10-17T15:09:45;100189.63;;;25.25;nan
63556;BME280;49700;48.072;7.800;2022-10-17T15:12:17;100186.78;;;25.19;nan
63556;BME280;49700;48.072;7.800;2022-10-17T15:14:43;100189.13;;;25.13;nan
63556;BME280;49700;48.072;7.800;2022-10-17T15:17:26;100190.31;;;25.11;nan